sensor_id;sensor_type;location;lat;lon;timestamp;P1;durP1;ratioP1;P2;durP2;ratioP2
75760;SDS011;64373;46.136;8.830;2023-11-21T00:00:00;2.17;;;1.60;;
75760;SDS011;64373;46.136;8.830;2023-11-21T00:02:25;1.95;;;1.60;;
75760;SDS011;64373;46.136;8.830;2023-11-21T00:04:53;2.45;;;1.70;;
75760;SDS011;64373;46.136;8.830;2023-11-21T00:07:19;2.67;;;1.35;;
75760;SDS011;64373;46.136;8.830;2023-11-21T00:09:46;2.75;;;1.50;;
75760;SDS011;64373;46.136;8.830;2023-11-21T00:12:12;2.03;;;1.30;;
75760;SDS011;64373;46.136;8.830;2023-11-21T00:14:39;1.55;;;1.20;;
75760;SDS011;64373;46.136;8.830;2023-11-21T00:17:04;1.70;;;1.10;;
75760;SDS011;64373;46.136;8.830;2023-11-21T00:19:31;1.98;;;1.08;;
75760;SDS011;64373;46.136;8.830;2023-11-21T00:21:57;2.15;;;1.30;;
75760;SDS011;64373;46.136;8.830;2023-11-21T00:24:23;2.08;;;1.20;;
75760;SDS011;64373;46.136;8.830;2023-11-21T00:26:50;2.03;;;1.33;;
75760;SDS011;64373;46.136;8.830;2023-11-21T00:29:16;1.70;;;1.08;;
75760;SDS011;64373;46.136;8.830;2023-11-21T00:31:43;2.25;;;1.23;;
75760;SDS011;64373;46.136;8.830;2023-11-21T00:34:09;2.22;;;1.45;;
75760;SDS011;64373;46.136;8.830;2023-11-21T00:36:36;3.13;;;1.30;;
75760;SDS011;64373;46.136;8.830;2023-11-21T00:39:01;2.58;;;1.30;;
75760;SDS011;64373;46.136;8.830;2023-11-21T00:41:27;1.52;;;1.10;;
75760;SDS011;64373;46.136;8.830;2023-11-21T00:43:53;1.20;;;1.00;;
75760;SDS011;64373;46.136;8.830;2023-11-21T00:46:19;2.72;;;1.50;;
75760;SDS011;64373;46.136;8.830;2023-11-21T00:48:44;3.15;;;1.60;;
75760;SDS011;64373;46.136;8.830;2023-11-21T00:51:10;1.58;;;1.00;;
75760;SDS011;64373;46.136;8.830;2023-11-21T00:53:35;1.67;;;1.10;;
75760;SDS011;64373;46.136;8.830;2023-11-21T00:56:01;2.10;;;1.15;;
75760;SDS011;64373;46.136;8.830;2023-11-21T00:58:27;2.25;;;1.30;;
75760;SDS011;64373;46.136;8.830;2023-11-21T01:00:53;1.90;;;1.15;;
75760;SDS011;64373;46.136;8.830;2023-11-21T01:03:19;1.17;;;1.08;;
75760;SDS011;64373;46.136;8.830;2023-11-21T01:05:45;1.70;;;1.05;;
75760;SDS011;64373;46.136;8.830;2023-11-21T01:08:11;2.97;;;1.27;;
75760;SDS011;64373;46.136;8.830;2023-11-21T01:10:37;2.22;;;1.35;;
75760;SDS011;64373;46.136;8.830;2023-11-21T01:13:02;1.08;;;0.98;;
75760;SDS011;64373;46.136;8.830;2023-11-21T01:15:32;2.10;;;1.15;;
75760;SDS011;64373;46.136;8.830;2023-11-21T01:17:58;1.88;;;1.42;;
75760;SDS011;64373;46.136;8.830;2023-11-21T01:20:24;1.75;;;1.10;;
75760;SDS011;64373;46.136;8.830;2023-11-21T01:22:49;2.75;;;1.60;;
75760;SDS011;64373;46.136;8.830;2023-11-21T01:25:15;2.13;;;1.33;;
75760;SDS011;64373;46.136;8.830;2023-11-21T01:27:41;2.08;;;1.30;;
75760;SDS011;64373;46.136;8.830;2023-11-21T01:30:08;2.25;;;1.10;;
75760;SDS011;64373;46.136;8.830;2023-11-21T01:32:36;1.88;;;1.20;;
75760;SDS011;64373;46.136;8.830;2023-11-21T01:35:02;1.73;;;1.20;;
75760;SDS011;64373;46.136;8.830;2023-11-21T01:37:28;1.85;;;1.02;;
75760;SDS011;64373;46.136;8.830;2023-11-21T01:39:54;2.83;;;1.08;;
75760;SDS011;64373;46.136;8.830;2023-11-21T01:42:22;2.25;;;1.15;;
75760;SDS011;64373;46.136;8.830;2023-11-21T01:44:48;2.25;;;1.33;;
75760;SDS011;64373;46.136;8.830;2023-11-21T01:47:14;1.58;;;1.00;;
75760;SDS011;64373;46.136;8.830;2023-11-21T01:49:40;1.98;;;1.10;;
75760;SDS011;64373;46.136;8.830;2023-11-21T01:52:09;3.53;;;1.50;;
75760;SDS011;64373;46.136;8.830;2023-11-21T01:54:36;5.05;;;3.20;;
75760;SDS011;64373;46.136;8.830;2023-11-21T01:57:02;3.58;;;2.55;;
75760;SDS011;64373;46.136;8.830;2023-11-21T01:59:35;4.18;;;2.13;;
75760;SDS011;64373;46.136;8.830;2023-11-21T02:02:02;2.90;;;1.95;;
75760;SDS011;64373;46.136;8.830;2023-11-21T02:04:30;4.55;;;2.03;;
75760;SDS011;64373;46.136;8.830;2023-11-21T02:06:57;3.67;;;2.00;;
75760;SDS011;64373;46.136;8.830;2023-11-21T02:09:24;3.08;;;1.60;;
75760;SDS011;64373;46.136;8.830;2023-11-21T02:11:51;4.30;;;1.80;;
75760;SDS011;64373;46.136;8.830;2023-11-21T02:14:16;2.08;;;1.20;;
75760;SDS011;64373;46.136;8.830;2023-11-21T02:16:45;2.78;;;1.48;;
75760;SDS011;64373;46.136;8.830;2023-11-21T02:19:13;2.50;;;1.65;;
75760;SDS011;64373;46.136;8.830;2023-11-21T02:21:45;3.72;;;1.75;;
75760;SDS011;64373;46.136;8.830;2023-11-21T02:24:11;3.17;;;1.90;;
75760;SDS011;64373;46.136;8.830;2023-11-21T02:26:37;1.90;;;1.40;;
75760;SDS011;64373;46.136;8.830;2023-11-21T02:29:02;2.38;;;1.58;;
75760;SDS011;64373;46.136;8.830;2023-11-21T02:31:29;2.20;;;1.38;;
75760;SDS011;64373;46.136;8.830;2023-11-21T02:33:57;2.63;;;1.55;;
75760;SDS011;64373;46.136;8.830;2023-11-21T02:36:23;2.28;;;1.40;;
75760;SDS011;64373;46.136;8.830;2023-11-21T02:38:49;1.27;;;1.10;;
75760;SDS011;64373;46.136;8.830;2023-11-21T02:41:14;1.83;;;1.00;;
75760;SDS011;64373;46.136;8.830;2023-11-21T02:43:40;3.38;;;1.58;;
75760;SDS011;64373;46.136;8.830;2023-11-21T02:46:06;1.77;;;1.20;;
75760;SDS011;64373;46.136;8.830;2023-11-21T02:48:32;2.00;;;1.30;;
75760;SDS011;64373;46.136;8.830;2023-11-21T02:50:57;2.55;;;1.25;;
75760;SDS011;64373;46.136;8.830;2023-11-21T02:53:23;1.75;;;1.38;;
75760;SDS011;64373;46.136;8.830;2023-11-21T02:55:49;2.13;;;1.30;;
75760;SDS011;64373;46.136;8.830;2023-11-21T02:58:15;2.67;;;1.50;;
75760;SDS011;64373;46.136;8.830;2023-11-21T03:00:40;1.90;;;1.30;;
75760;SDS011;64373;46.136;8.830;2023-11-21T03:03:07;2.17;;;1.30;;
75760;SDS011;64373;46.136;8.830;2023-11-21T03:05:33;2.90;;;1.55;;
75760;SDS011;64373;46.136;8.830;2023-11-21T03:08:00;1.80;;;1.30;;
75760;SDS011;64373;46.136;8.830;2023-11-21T03:10:26;2.83;;;1.80;;
75760;SDS011;64373;46.136;8.830;2023-11-21T03:12:52;2.75;;;1.60;;
75760;SDS011;64373;46.136;8.830;2023-11-21T03:15:17;2.20;;;1.50;;
75760;SDS011;64373;46.136;8.830;2023-11-21T03:17:43;2.13;;;1.48;;
75760;SDS011;64373;46.136;8.830;2023-11-21T03:20:09;2.75;;;1.50;;
75760;SDS011;64373;46.136;8.830;2023-11-21T03:22:36;2.70;;;1.65;;
75760;SDS011;64373;46.136;8.830;2023-11-21T03:25:03;2.20;;;1.70;;
75760;SDS011;64373;46.136;8.830;2023-11-21T03:27:30;2.20;;;1.60;;
75760;SDS011;64373;46.136;8.830;2023-11-21T03:29:55;1.83;;;1.33;;
75760;SDS011;64373;46.136;8.830;2023-11-21T03:32:21;1.85;;;1.13;;
75760;SDS011;64373;46.136;8.830;2023-11-21T03:34:56;3.65;;;1.35;;
75760;SDS011;64373;46.136;8.830;2023-11-21T03:37:23;2.00;;;1.30;;
75760;SDS011;64373;46.136;8.830;2023-11-21T03:39:49;1.65;;;1.25;;
75760;SDS011;64373;46.136;8.830;2023-11-21T03:42:15;2.03;;;1.38;;
75760;SDS011;64373;46.136;8.830;2023-11-21T03:44:41;3.10;;;1.63;;
75760;SDS011;64373;46.136;8.830;2023-11-21T03:47:06;3.15;;;2.05;;
75760;SDS011;64373;46.136;8.830;2023-11-21T03:49:32;2.47;;;1.83;;
75760;SDS011;64373;46.136;8.830;2023-11-21T03:51:59;2.78;;;1.65;;
75760;SDS011;64373;46.136;8.830;2023-11-21T03:54:24;2.03;;;1.20;;
75760;SDS011;64373;46.136;8.830;2023-11-21T03:56:50;1.73;;;1.30;;
75760;SDS011;64373;46.136;8.830;2023-11-21T03:59:15;1.60;;;1.25;;
75760;SDS011;64373;46.136;8.830;2023-11-21T04:01:41;2.03;;;1.40;;
75760;SDS011;64373;46.136;8.830;2023-11-21T04:04:06;2.05;;;1.25;;
75760;SDS011;64373;46.136;8.830;2023-11-21T04:06:32;2.30;;;1.63;;
75760;SDS011;64373;46.136;8.830;2023-11-21T04:08:58;2.83;;;1.48;;
75760;SDS011;64373;46.136;8.830;2023-11-21T04:11:24;1.35;;;1.02;;
75760;SDS011;64373;46.136;8.830;2023-11-21T04:13:49;2.40;;;1.02;;
75760;SDS011;64373;46.136;8.830;2023-11-21T04:16:15;2.50;;;1.80;;
75760;SDS011;64373;46.136;8.830;2023-11-21T04:18:41;3.40;;;1.67;;
75760;SDS011;64373;46.136;8.830;2023-11-21T04:21:06;2.47;;;1.40;;
75760;SDS011;64373;46.136;8.830;2023-11-21T04:23:33;1.95;;;1.40;;
75760;SDS011;64373;46.136;8.830;2023-11-21T04:25:59;2.17;;;1.33;;
75760;SDS011;64373;46.136;8.830;2023-11-21T04:28:25;2.28;;;1.45;;
75760;SDS011;64373;46.136;8.830;2023-11-21T04:30:50;2.13;;;1.35;;
75760;SDS011;64373;46.136;8.830;2023-11-21T04:33:16;3.05;;;1.60;;
75760;SDS011;64373;46.136;8.830;2023-11-21T04:35:42;2.47;;;1.85;;
75760;SDS011;64373;46.136;8.830;2023-11-21T04:38:07;2.35;;;1.38;;
75760;SDS011;64373;46.136;8.830;2023-11-21T04:40:33;1.95;;;1.50;;
75760;SDS011;64373;46.136;8.830;2023-11-21T04:42:58;2.65;;;1.50;;
75760;SDS011;64373;46.136;8.830;2023-11-21T04:45:24;2.92;;;1.70;;
75760;SDS011;64373;46.136;8.830;2023-11-21T04:47:50;3.35;;;2.08;;
75760;SDS011;64373;46.136;8.830;2023-11-21T04:50:15;2.38;;;1.52;;
75760;SDS011;64373;46.136;8.830;2023-11-21T04:52:41;2.63;;;1.90;;
75760;SDS011;64373;46.136;8.830;2023-11-21T04:55:07;3.15;;;2.47;;
75760;SDS011;64373;46.136;8.830;2023-11-21T04:57:35;5.65;;;3.38;;
75760;SDS011;64373;46.136;8.830;2023-11-21T05:00:01;4.72;;;2.88;;
75760;SDS011;64373;46.136;8.830;2023-11-21T05:02:31;4.03;;;2.70;;
75760;SDS011;64373;46.136;8.830;2023-11-21T05:04:59;4.05;;;2.33;;
75760;SDS011;64373;46.136;8.830;2023-11-21T05:07:25;3.33;;;2.10;;
75760;SDS011;64373;46.136;8.830;2023-11-21T05:09:54;3.13;;;1.90;;
75760;SDS011;64373;46.136;8.830;2023-11-21T05:12:21;2.67;;;1.75;;
75760;SDS011;64373;46.136;8.830;2023-11-21T05:14:48;3.00;;;1.80;;
75760;SDS011;64373;46.136;8.830;2023-11-21T05:17:14;2.38;;;1.70;;
75760;SDS011;64373;46.136;8.830;2023-11-21T05:19:40;2.33;;;1.60;;
75760;SDS011;64373;46.136;8.830;2023-11-21T05:22:06;2.95;;;1.73;;
75760;SDS011;64373;46.136;8.830;2023-11-21T05:24:33;2.58;;;1.67;;
75760;SDS011;64373;46.136;8.830;2023-11-21T05:26:58;1.92;;;1.50;;
75760;SDS011;64373;46.136;8.830;2023-11-21T05:29:24;3.55;;;1.90;;
75760;SDS011;64373;46.136;8.830;2023-11-21T05:31:50;3.38;;;1.70;;
75760;SDS011;64373;46.136;8.830;2023-11-21T05:34:16;1.98;;;1.40;;
75760;SDS011;64373;46.136;8.830;2023-11-21T05:36:45;2.25;;;1.48;;
75760;SDS011;64373;46.136;8.830;2023-11-21T05:39:13;3.25;;;1.70;;
75760;SDS011;64373;46.136;8.830;2023-11-21T05:41:39;1.85;;;1.30;;
75760;SDS011;64373;46.136;8.830;2023-11-21T05:44:04;2.83;;;1.73;;
75760;SDS011;64373;46.136;8.830;2023-11-21T05:46:30;2.88;;;1.77;;
75760;SDS011;64373;46.136;8.830;2023-11-21T05:48:56;1.90;;;1.23;;
75760;SDS011;64373;46.136;8.830;2023-11-21T05:51:21;2.33;;;1.50;;
75760;SDS011;64373;46.136;8.830;2023-11-21T05:53:47;3.15;;;1.63;;
75760;SDS011;64373;46.136;8.830;2023-11-21T05:56:13;2.50;;;1.58;;
75760;SDS011;64373;46.136;8.830;2023-11-21T05:58:38;2.80;;;1.50;;
75760;SDS011;64373;46.136;8.830;2023-11-21T06:01:05;2.30;;;1.50;;
75760;SDS011;64373;46.136;8.830;2023-11-21T06:03:37;3.22;;;2.00;;
75760;SDS011;64373;46.136;8.830;2023-11-21T06:06:03;3.47;;;2.00;;
75760;SDS011;64373;46.136;8.830;2023-11-21T06:08:29;2.47;;;1.60;;
75760;SDS011;64373;46.136;8.830;2023-11-21T06:10:55;2.90;;;1.90;;
75760;SDS011;64373;46.136;8.830;2023-11-21T06:13:20;3.17;;;2.05;;
75760;SDS011;64373;46.136;8.830;2023-11-21T06:15:49;3.20;;;1.80;;
75760;SDS011;64373;46.136;8.830;2023-11-21T06:18:16;2.92;;;2.15;;
75760;SDS011;64373;46.136;8.830;2023-11-21T06:20:44;3.42;;;1.80;;
75760;SDS011;64373;46.136;8.830;2023-11-21T06:23:11;3.03;;;1.60;;
75760;SDS011;64373;46.136;8.830;2023-11-21T06:25:36;3.35;;;1.90;;
75760;SDS011;64373;46.136;8.830;2023-11-21T06:28:02;3.85;;;2.28;;
75760;SDS011;64373;46.136;8.830;2023-11-21T06:30:27;3.88;;;2.40;;
75760;SDS011;64373;46.136;8.830;2023-11-21T06:32:54;2.25;;;1.77;;
75760;SDS011;64373;46.136;8.830;2023-11-21T06:35:20;2.95;;;1.90;;
75760;SDS011;64373;46.136;8.830;2023-11-21T06:37:46;2.70;;;1.75;;
75760;SDS011;64373;46.136;8.830;2023-11-21T06:40:13;3.00;;;1.80;;
75760;SDS011;64373;46.136;8.830;2023-11-21T06:42:40;4.13;;;1.70;;
75760;SDS011;64373;46.136;8.830;2023-11-21T06:45:06;3.42;;;1.80;;
75760;SDS011;64373;46.136;8.830;2023-11-21T06:47:33;4.10;;;2.30;;
75760;SDS011;64373;46.136;8.830;2023-11-21T06:49:58;3.50;;;2.03;;
75760;SDS011;64373;46.136;8.830;2023-11-21T06:52:25;3.40;;;2.03;;
75760;SDS011;64373;46.136;8.830;2023-11-21T06:54:51;3.60;;;2.20;;
75760;SDS011;64373;46.136;8.830;2023-11-21T06:57:16;2.97;;;1.67;;
75760;SDS011;64373;46.136;8.830;2023-11-21T06:59:42;2.30;;;1.60;;
75760;SDS011;64373;46.136;8.830;2023-11-21T07:02:08;2.63;;;1.42;;
75760;SDS011;64373;46.136;8.830;2023-11-21T07:04:34;2.53;;;1.27;;
75760;SDS011;64373;46.136;8.830;2023-11-21T07:07:03;2.40;;;1.38;;
75760;SDS011;64373;46.136;8.830;2023-11-21T07:09:29;2.20;;;1.20;;
75760;SDS011;64373;46.136;8.830;2023-11-21T07:11:56;2.10;;;1.30;;
75760;SDS011;64373;46.136;8.830;2023-11-21T07:14:21;1.95;;;1.23;;
75760;SDS011;64373;46.136;8.830;2023-11-21T07:16:47;2.17;;;1.38;;
75760;SDS011;64373;46.136;8.830;2023-11-21T07:19:13;2.25;;;1.40;;
75760;SDS011;64373;46.136;8.830;2023-11-21T07:21:39;3.03;;;1.90;;
75760;SDS011;64373;46.136;8.830;2023-11-21T07:24:05;2.58;;;1.75;;
75760;SDS011;64373;46.136;8.830;2023-11-21T07:26:32;2.42;;;1.80;;
75760;SDS011;64373;46.136;8.830;2023-11-21T07:28:58;3.28;;;1.45;;
75760;SDS011;64373;46.136;8.830;2023-11-21T07:31:25;1.67;;;1.35;;
75760;SDS011;64373;46.136;8.830;2023-11-21T07:33:51;2.30;;;1.40;;
75760;SDS011;64373;46.136;8.830;2023-11-21T07:36:17;3.50;;;1.70;;
75760;SDS011;64373;46.136;8.830;2023-11-21T07:38:45;1.83;;;1.33;;
75760;SDS011;64373;46.136;8.830;2023-11-21T07:41:11;2.08;;;1.35;;
75760;SDS011;64373;46.136;8.830;2023-11-21T07:43:41;1.88;;;1.45;;
75760;SDS011;64373;46.136;8.830;2023-11-21T07:46:07;2.70;;;1.50;;
75760;SDS011;64373;46.136;8.830;2023-11-21T07:48:33;3.08;;;1.30;;
75760;SDS011;64373;46.136;8.830;2023-11-21T07:51:00;1.67;;;1.13;;
75760;SDS011;64373;46.136;8.830;2023-11-21T07:53:27;2.40;;;1.30;;
75760;SDS011;64373;46.136;8.830;2023-11-21T07:55:55;2.45;;;1.40;;
75760;SDS011;64373;46.136;8.830;2023-11-21T07:58:30;2.58;;;1.75;;
75760;SDS011;64373;46.136;8.830;2023-11-21T08:00:58;3.47;;;2.30;;
75760;SDS011;64373;46.136;8.830;2023-11-21T08:03:24;3.25;;;1.98;;
75760;SDS011;64373;46.136;8.830;2023-11-21T08:05:51;3.35;;;2.08;;
75760;SDS011;64373;46.136;8.830;2023-11-21T08:08:17;2.95;;;1.90;;
75760;SDS011;64373;46.136;8.830;2023-11-21T08:10:44;2.60;;;1.65;;
75760;SDS011;64373;46.136;8.830;2023-11-21T08:13:21;2.80;;;1.75;;
75760;SDS011;64373;46.136;8.830;2023-11-21T08:15:50;3.70;;;1.88;;
75760;SDS011;64373;46.136;8.830;2023-11-21T08:18:15;2.40;;;1.40;;
75760;SDS011;64373;46.136;8.830;2023-11-21T08:20:42;2.95;;;1.50;;
75760;SDS011;64373;46.136;8.830;2023-11-21T08:23:08;2.30;;;1.50;;
75760;SDS011;64373;46.136;8.830;2023-11-21T08:25:34;2.20;;;1.40;;
75760;SDS011;64373;46.136;8.830;2023-11-21T08:28:00;3.28;;;1.98;;
75760;SDS011;64373;46.136;8.830;2023-11-21T08:30:27;7.32;;;2.22;;
75760;SDS011;64373;46.136;8.830;2023-11-21T08:32:55;2.33;;;1.60;;
75760;SDS011;64373;46.136;8.830;2023-11-21T08:35:23;2.58;;;1.50;;
75760;SDS011;64373;46.136;8.830;2023-11-21T08:37:52;2.78;;;1.50;;
75760;SDS011;64373;46.136;8.830;2023-11-21T08:40:18;2.75;;;1.73;;
75760;SDS011;64373;46.136;8.830;2023-11-21T08:42:44;2.45;;;1.50;;
75760;SDS011;64373;46.136;8.830;2023-11-21T08:45:11;2.55;;;1.60;;
75760;SDS011;64373;46.136;8.830;2023-11-21T08:47:38;2.63;;;1.65;;
75760;SDS011;64373;46.136;8.830;2023-11-21T08:50:05;2.55;;;1.35;;
75760;SDS011;64373;46.136;8.830;2023-11-21T08:52:33;2.85;;;1.10;;
75760;SDS011;64373;46.136;8.830;2023-11-21T08:54:59;2.50;;;1.30;;
75760;SDS011;64373;46.136;8.830;2023-11-21T08:57:28;1.63;;;1.10;;
75760;SDS011;64373;46.136;8.830;2023-11-21T08:59:53;2.08;;;1.55;;
75760;SDS011;64373;46.136;8.830;2023-11-21T09:02:25;2.50;;;1.38;;
75760;SDS011;64373;46.136;8.830;2023-11-21T09:04:51;2.78;;;1.60;;
75760;SDS011;64373;46.136;8.830;2023-11-21T09:07:20;1.90;;;1.50;;
75760;SDS011;64373;46.136;8.830;2023-11-21T09:09:46;2.30;;;1.55;;
75760;SDS011;64373;46.136;8.830;2023-11-21T09:12:13;2.35;;;1.55;;
75760;SDS011;64373;46.136;8.830;2023-11-21T09:14:38;2.38;;;1.50;;
75760;SDS011;64373;46.136;8.830;2023-11-21T09:17:04;1.80;;;1.30;;
75760;SDS011;64373;46.136;8.830;2023-11-21T09:19:39;2.17;;;1.63;;
75760;SDS011;64373;46.136;8.830;2023-11-21T09:22:05;3.42;;;2.15;;
75760;SDS011;64373;46.136;8.830;2023-11-21T09:24:33;5.13;;;2.63;;
75760;SDS011;64373;46.136;8.830;2023-11-21T09:26:59;4.85;;;2.75;;
75760;SDS011;64373;46.136;8.830;2023-11-21T09:29:28;4.07;;;2.45;;
75760;SDS011;64373;46.136;8.830;2023-11-21T09:31:54;3.20;;;2.13;;
75760;SDS011;64373;46.136;8.830;2023-11-21T09:34:20;2.10;;;1.73;;
75760;SDS011;64373;46.136;8.830;2023-11-21T09:36:46;2.00;;;1.50;;
75760;SDS011;64373;46.136;8.830;2023-11-21T09:39:13;120.95;;;13.15;;
75760;SDS011;64373;46.136;8.830;2023-11-21T09:41:43;38.70;;;11.20;;
75760;SDS011;64373;46.136;8.830;2023-11-21T09:44:13;19.45;;;11.27;;
75760;SDS011;64373;46.136;8.830;2023-11-21T09:46:42;9.52;;;7.18;;
75760;SDS011;64373;46.136;8.830;2023-11-21T09:49:11;4.85;;;4.30;;
75760;SDS011;64373;46.136;8.830;2023-11-21T09:51:39;5.95;;;3.30;;
75760;SDS011;64373;46.136;8.830;2023-11-21T09:54:05;3.00;;;2.33;;
75760;SDS011;64373;46.136;8.830;2023-11-21T09:56:32;2.78;;;2.15;;
75760;SDS011;64373;46.136;8.830;2023-11-21T09:58:58;1.98;;;1.70;;
75760;SDS011;64373;46.136;8.830;2023-11-21T10:01:29;2.22;;;1.63;;
75760;SDS011;64373;46.136;8.830;2023-11-21T10:03:56;1.67;;;1.15;;
75760;SDS011;64373;46.136;8.830;2023-11-21T10:06:21;1.70;;;1.10;;
75760;SDS011;64373;46.136;8.830;2023-11-21T10:08:50;2.33;;;0.80;;
75760;SDS011;64373;46.136;8.830;2023-11-21T10:11:16;1.13;;;0.82;;
75760;SDS011;64373;46.136;8.830;2023-11-21T10:13:43;0.70;;;0.50;;
75760;SDS011;64373;46.136;8.830;2023-11-21T10:16:11;1.15;;;0.60;;
75760;SDS011;64373;46.136;8.830;2023-11-21T10:18:41;1.58;;;1.08;;
75760;SDS011;64373;46.136;8.830;2023-11-21T10:21:07;1.30;;;0.90;;
75760;SDS011;64373;46.136;8.830;2023-11-21T10:23:34;1.30;;;0.80;;
75760;SDS011;64373;46.136;8.830;2023-11-21T10:25:59;1.83;;;0.70;;
75760;SDS011;64373;46.136;8.830;2023-11-21T10:28:26;1.42;;;0.85;;
75760;SDS011;64373;46.136;8.830;2023-11-21T10:30:51;2.22;;;1.10;;
75760;SDS011;64373;46.136;8.830;2023-11-21T10:33:17;0.82;;;0.55;;
75760;SDS011;64373;46.136;8.830;2023-11-21T10:35:52;0.70;;;0.55;;
75760;SDS011;64373;46.136;8.830;2023-11-21T10:38:20;1.00;;;0.70;;
75760;SDS011;64373;46.136;8.830;2023-11-21T10:40:48;1.33;;;0.60;;
75760;SDS011;64373;46.136;8.830;2023-11-21T10:43:14;0.63;;;0.40;;
75760;SDS011;64373;46.136;8.830;2023-11-21T10:45:40;0.95;;;0.60;;
75760;SDS011;64373;46.136;8.830;2023-11-21T10:48:10;0.80;;;0.60;;
75760;SDS011;64373;46.136;8.830;2023-11-21T10:50:37;1.00;;;0.60;;
75760;SDS011;64373;46.136;8.830;2023-11-21T10:53:03;0.90;;;0.60;;
75760;SDS011;64373;46.136;8.830;2023-11-21T10:55:30;1.10;;;0.55;;
75760;SDS011;64373;46.136;8.830;2023-11-21T10:57:58;0.60;;;0.47;;
75760;SDS011;64373;46.136;8.830;2023-11-21T11:00:25;0.93;;;0.60;;
75760;SDS011;64373;46.136;8.830;2023-11-21T11:02:52;0.70;;;0.50;;
75760;SDS011;64373;46.136;8.830;2023-11-21T11:05:22;1.23;;;0.50;;
75760;SDS011;64373;46.136;8.830;2023-11-21T11:08:03;0.95;;;0.45;;
75760;SDS011;64373;46.136;8.830;2023-11-21T11:10:30;0.43;;;0.30;;
75760;SDS011;64373;46.136;8.830;2023-11-21T11:12:57;1.00;;;0.52;;
75760;SDS011;64373;46.136;8.830;2023-11-21T11:15:24;0.38;;;0.22;;
75760;SDS011;64373;46.136;8.830;2023-11-21T11:17:50;0.60;;;0.30;;
75760;SDS011;64373;46.136;8.830;2023-11-21T11:20:17;0.15;;;0.15;;
75760;SDS011;64373;46.136;8.830;2023-11-21T11:34:11;0.80;;;0.60;;
75760;SDS011;64373;46.136;8.830;2023-11-21T11:36:47;0.85;;;0.57;;
75760;SDS011;64373;46.136;8.830;2023-11-21T11:42:16;0.95;;;0.40;;
75760;SDS011;64373;46.136;8.830;2023-11-21T11:47:29;1.00;;;0.55;;
75760;SDS011;64373;46.136;8.830;2023-11-21T11:50:03;1.02;;;0.60;;
75760;SDS011;64373;46.136;8.830;2023-11-21T11:52:41;0.68;;;0.50;;
75760;SDS011;64373;46.136;8.830;2023-11-21T11:55:17;0.85;;;0.50;;
75760;SDS011;64373;46.136;8.830;2023-11-21T11:57:44;0.70;;;0.40;;
75760;SDS011;64373;46.136;8.830;2023-11-21T12:00:16;0.70;;;0.22;;
75760;SDS011;64373;46.136;8.830;2023-11-21T12:02:47;1.33;;;0.57;;
75760;SDS011;64373;46.136;8.830;2023-11-21T12:05:14;0.68;;;0.40;;
75760;SDS011;64373;46.136;8.830;2023-11-21T12:10:16;0.17;;;0.15;;
75760;SDS011;64373;46.136;8.830;2023-11-21T12:12:44;0.05;;;0.00;;
75760;SDS011;64373;46.136;8.830;2023-11-21T12:15:12;0.10;;;0.00;;
75760;SDS011;64373;46.136;8.830;2023-11-21T12:17:39;0.10;;;0.00;;
75760;SDS011;64373;46.136;8.830;2023-11-21T12:20:07;0.10;;;0.00;;
75760;SDS011;64373;46.136;8.830;2023-11-21T12:22:55;0.08;;;0.08;;
75760;SDS011;64373;46.136;8.830;2023-11-21T12:25:28;0.10;;;0.00;;
75760;SDS011;64373;46.136;8.830;2023-11-21T12:27:56;0.20;;;0.00;;
75760;SDS011;64373;46.136;8.830;2023-11-21T12:30:23;0.17;;;0.10;;
75760;SDS011;64373;46.136;8.830;2023-11-21T12:32:53;0.50;;;0.20;;
75760;SDS011;64373;46.136;8.830;2023-11-21T12:35:21;0.17;;;0.17;;
75760;SDS011;64373;46.136;8.830;2023-11-21T12:37:48;1.55;;;0.20;;
75760;SDS011;64373;46.136;8.830;2023-11-21T12:40:15;0.10;;;0.10;;
75760;SDS011;64373;46.136;8.830;2023-11-21T12:42:43;0.20;;;0.10;;
75760;SDS011;64373;46.136;8.830;2023-11-21T12:47:46;0.40;;;0.30;;
75760;SDS011;64373;46.136;8.830;2023-11-21T12:50:18;0.10;;;0.10;;
75760;SDS011;64373;46.136;8.830;2023-11-21T12:52:48;0.10;;;0.10;;
75760;SDS011;64373;46.136;8.830;2023-11-21T12:55:18;0.93;;;0.68;;
75760;SDS011;64373;46.136;8.830;2023-11-21T12:57:50;0.85;;;0.50;;
75760;SDS011;64373;46.136;8.830;2023-11-21T13:00:19;0.90;;;0.50;;
75760;SDS011;64373;46.136;8.830;2023-11-21T13:02:56;0.68;;;0.15;;
75760;SDS011;64373;46.136;8.830;2023-11-21T13:07:49;0.60;;;0.47;;
75760;SDS011;64373;46.136;8.830;2023-11-21T13:10:16;0.65;;;0.30;;
75760;SDS011;64373;46.136;8.830;2023-11-21T13:12:42;0.43;;;0.20;;
75760;SDS011;64373;46.136;8.830;2023-11-21T13:15:13;0.17;;;0.10;;
75760;SDS011;64373;46.136;8.830;2023-11-21T13:17:43;0.10;;;0.10;;
75760;SDS011;64373;46.136;8.830;2023-11-21T13:20:12;0.10;;;0.10;;
75760;SDS011;64373;46.136;8.830;2023-11-21T13:22:50;0.10;;;0.03;;
75760;SDS011;64373;46.136;8.830;2023-11-21T13:25:24;0.40;;;0.03;;
75760;SDS011;64373;46.136;8.830;2023-11-21T13:27:53;0.10;;;0.10;;
75760;SDS011;64373;46.136;8.830;2023-11-21T13:30:19;0.10;;;0.10;;
75760;SDS011;64373;46.136;8.830;2023-11-21T13:33:05;0.00;;;0.00;;
75760;SDS011;64373;46.136;8.830;2023-11-21T13:35:39;0.10;;;0.00;;
75760;SDS011;64373;46.136;8.830;2023-11-21T13:38:13;0.10;;;0.00;;
75760;SDS011;64373;46.136;8.830;2023-11-21T13:40:42;0.68;;;0.10;;
75760;SDS011;64373;46.136;8.830;2023-11-21T13:43:14;0.10;;;0.10;;
75760;SDS011;64373;46.136;8.830;2023-11-21T13:45:41;0.00;;;0.00;;
75760;SDS011;64373;46.136;8.830;2023-11-21T13:48:07;0.00;;;0.00;;
75760;SDS011;64373;46.136;8.830;2023-11-21T13:50:42;0.00;;;0.00;;
75760;SDS011;64373;46.136;8.830;2023-11-21T13:53:34;0.03;;;0.03;;
75760;SDS011;64373;46.136;8.830;2023-11-21T13:56:02;0.05;;;0.05;;
75760;SDS011;64373;46.136;8.830;2023-11-21T13:58:28;0.05;;;0.00;;
75760;SDS011;64373;46.136;8.830;2023-11-21T14:01:10;0.20;;;0.03;;
75760;SDS011;64373;46.136;8.830;2023-11-21T14:03:54;0.10;;;0.10;;
75760;SDS011;64373;46.136;8.830;2023-11-21T14:06:52;0.00;;;0.00;;
75760;SDS011;64373;46.136;8.830;2023-11-21T14:09:22;0.00;;;0.00;;
75760;SDS011;64373;46.136;8.830;2023-11-21T14:14:17;0.10;;;0.08;;
75760;SDS011;64373;46.136;8.830;2023-11-21T14:16:43;0.10;;;0.00;;
75760;SDS011;64373;46.136;8.830;2023-11-21T14:19:09;0.10;;;0.00;;
75760;SDS011;64373;46.136;8.830;2023-11-21T14:21:44;0.20;;;0.05;;
75760;SDS011;64373;46.136;8.830;2023-11-21T14:24:13;0.03;;;0.03;;
75760;SDS011;64373;46.136;8.830;2023-11-21T14:26:39;0.52;;;0.00;;
75760;SDS011;64373;46.136;8.830;2023-11-21T14:29:06;0.10;;;0.00;;
75760;SDS011;64373;46.136;8.830;2023-11-21T14:31:33;0.08;;;0.00;;
75760;SDS011;64373;46.136;8.830;2023-11-21T14:33:59;0.10;;;0.10;;
75760;SDS011;64373;46.136;8.830;2023-11-21T14:36:27;0.00;;;0.00;;
75760;SDS011;64373;46.136;8.830;2023-11-21T14:38:52;0.00;;;0.00;;
75760;SDS011;64373;46.136;8.830;2023-11-21T14:41:18;0.77;;;0.00;;
75760;SDS011;64373;46.136;8.830;2023-11-21T14:43:44;0.00;;;0.00;;
75760;SDS011;64373;46.136;8.830;2023-11-21T14:46:11;0.10;;;0.10;;
75760;SDS011;64373;46.136;8.830;2023-11-21T14:48:41;0.00;;;0.00;;
75760;SDS011;64373;46.136;8.830;2023-11-21T14:51:12;0.00;;;0.00;;
75760;SDS011;64373;46.136;8.830;2023-11-21T14:54:07;0.00;;;0.00;;
75760;SDS011;64373;46.136;8.830;2023-11-21T14:56:35;0.00;;;0.00;;
75760;SDS011;64373;46.136;8.830;2023-11-21T14:59:02;0.77;;;0.22;;
75760;SDS011;64373;46.136;8.830;2023-11-21T15:01:37;0.10;;;0.10;;
75760;SDS011;64373;46.136;8.830;2023-11-21T15:04:21;0.30;;;0.10;;
75760;SDS011;64373;46.136;8.830;2023-11-21T15:07:07;0.03;;;0.00;;
75760;SDS011;64373;46.136;8.830;2023-11-21T15:09:33;0.00;;;0.00;;
75760;SDS011;64373;46.136;8.830;2023-11-21T15:11:59;0.10;;;0.10;;
75760;SDS011;64373;46.136;8.830;2023-11-21T15:14:37;0.10;;;0.00;;
75760;SDS011;64373;46.136;8.830;2023-11-21T15:17:03;0.35;;;0.10;;